createdAt,value
2018-02-21T00:01:21.897Z,36.35
2018-02-21T00:03:49.401Z,40.67
2018-02-21T00:06:16.897Z,46.15
2018-02-21T00:08:44.397Z,42.65
2018-02-21T00:11:11.889Z,39.05
2018-02-21T00:13:39.392Z,45.12
2018-02-21T00:16:07.645Z,37.55
2018-02-21T00:18:35.141Z,39.25
2018-02-21T00:21:02.650Z,46.33
2018-02-21T00:23:30.150Z,50.47
2018-02-21T00:25:58.413Z,41.65
2018-02-21T00:28:27.629Z,51.30
2018-02-21T00:30:55.121Z,46.35
2018-02-21T00:33:22.622Z,46.00
2018-02-21T00:35:50.899Z,48.60
2018-02-21T00:38:19.172Z,42.22
2018-02-21T00:40:47.437Z,40.90
2018-02-21T00:43:16.524Z,43.55
2018-02-21T00:45:44.053Z,41.83
2018-02-21T00:48:11.627Z,45.55
2018-02-21T00:50:39.825Z,42.42
2018-02-21T00:53:07.346Z,44.45
2018-02-21T00:55:34.855Z,41.97
2018-02-21T00:58:03.179Z,37.15
2018-02-21T01:00:30.701Z,39.90
2018-02-21T01:02:58.197Z,41.08
2018-02-21T01:05:25.668Z,41.17
2018-02-21T01:07:53.165Z,42.72
2018-02-21T01:10:21.413Z,39.97
2018-02-21T01:12:48.896Z,41.37
2018-02-21T01:15:17.227Z,40.00
2018-02-21T01:17:44.716Z,37.28
2018-02-21T01:20:12.291Z,40.17
2018-02-21T01:22:40.567Z,40.88
2018-02-21T01:25:08.844Z,44.47
2018-02-21T01:27:37.096Z,51.13
2018-02-21T01:30:04.580Z,46.33
2018-02-21T01:32:32.828Z,48.58
2018-02-21T01:35:00.316Z,49.25
2018-02-21T01:37:28.579Z,44.72
2018-02-21T01:39:56.828Z,45.28
2018-02-21T01:42:24.313Z,48.90
2018-02-21T01:44:52.592Z,48.67
2018-02-21T01:47:20.835Z,54.15
2018-02-21T01:49:48.317Z,45.65
2018-02-21T01:52:16.606Z,46.30
2018-02-21T01:54:44.880Z,40.20
2018-02-21T01:57:13.156Z,37.38
2018-02-21T01:59:41.416Z,41.30
2018-02-21T02:02:09.677Z,47.75
2018-02-21T02:04:37.252Z,46.05
2018-02-21T02:07:04.750Z,40.72
2018-02-21T02:09:32.236Z,37.92
2018-02-21T02:11:59.768Z,45.95
2018-02-21T02:14:27.253Z,38.60
2018-02-21T02:16:54.845Z,49.08
2018-02-21T02:19:23.094Z,50.90
2018-02-21T02:21:50.571Z,42.42
2018-02-21T02:24:18.073Z,36.30
2018-02-21T02:26:45.560Z,42.70
2018-02-21T02:29:13.041Z,46.78
2018-02-21T02:31:40.559Z,41.28
2018-02-21T02:34:08.048Z,37.78
2018-02-21T02:36:35.629Z,38.00
2018-02-21T02:39:15.743Z,49.55
2018-02-21T02:41:43.220Z,44.47
2018-02-21T02:44:10.706Z,49.78
2018-02-21T02:46:39.044Z,50.47
2018-02-21T02:49:06.631Z,45.95
2018-02-21T02:51:34.895Z,36.47
2018-02-21T02:54:03.155Z,50.95
2018-02-21T02:56:30.649Z,46.72
2018-02-21T02:58:58.910Z,45.67
2018-02-21T03:01:27.166Z,48.95
2018-02-21T03:03:54.645Z,49.55
2018-02-21T03:06:22.893Z,44.10
2018-02-21T03:08:50.402Z,47.22
2018-02-21T03:11:17.896Z,41.50
2018-02-21T03:13:45.380Z,47.05
2018-02-21T03:16:13.738Z,43.85
2018-02-21T03:18:41.352Z,52.83
2018-02-21T03:21:09.015Z,38.08
2018-02-21T03:23:36.719Z,46.15
2018-02-21T03:26:04.213Z,55.03
2018-02-21T03:28:32.578Z,50.70
2018-02-21T03:31:00.272Z,52.00
2018-02-21T03:33:27.874Z,43.75
2018-02-21T03:35:55.364Z,42.33
2018-02-21T03:38:23.196Z,43.63
2018-02-21T03:40:50.911Z,47.25
2018-02-21T03:43:18.503Z,39.00
2018-02-21T03:45:46.150Z,42.10
2018-02-21T03:48:13.833Z,44.40
2018-02-21T03:50:41.448Z,52.10
2018-02-21T03:53:09.692Z,42.42
2018-02-21T03:55:37.243Z,40.05
2018-02-21T03:58:04.832Z,47.28
2018-02-21T04:00:33.071Z,47.40
2018-02-21T04:03:00.559Z,46.50
2018-02-21T04:05:28.044Z,45.17
2018-02-21T04:07:55.536Z,53.33
2018-02-21T04:10:23.015Z,49.72
2018-02-21T04:12:50.495Z,47.53
2018-02-21T04:15:18.747Z,48.10
2018-02-21T04:17:46.324Z,44.00
2018-02-21T04:20:14.564Z,44.08
2018-02-21T04:22:42.056Z,44.35
2018-02-21T04:25:10.300Z,46.05
2018-02-21T04:27:37.909Z,49.50
2018-02-21T04:30:06.207Z,43.25
2018-02-21T04:32:33.688Z,46.35
2018-02-21T04:35:01.175Z,48.63
2018-02-21T04:37:28.735Z,45.42
2018-02-21T04:39:56.227Z,44.25
2018-02-21T04:42:23.797Z,46.47
2018-02-21T04:44:51.302Z,40.83
2018-02-21T04:47:18.786Z,50.63
2018-02-21T04:49:46.284Z,51.35
2018-02-21T04:52:13.879Z,43.65
2018-02-21T04:54:47.128Z,49.45
2018-02-21T04:57:20.432Z,42.13
2018-02-21T04:59:48.701Z,43.08
2018-02-21T05:02:16.181Z,46.03
2018-02-21T05:04:43.659Z,45.28
2018-02-21T05:07:11.137Z,54.00
2018-02-21T05:09:39.388Z,39.28
2018-02-21T05:12:06.880Z,48.50
2018-02-21T05:14:34.389Z,44.28
2018-02-21T05:17:02.772Z,43.60
2018-02-21T05:19:31.756Z,47.25
2018-02-21T05:21:59.237Z,57.45
2018-02-21T05:24:26.805Z,44.72
2018-02-21T05:26:55.061Z,36.13
2018-02-21T05:29:22.545Z,50.90
2018-02-21T05:31:50.844Z,55.33
2018-02-21T05:34:18.329Z,56.65
2018-02-21T05:36:45.816Z,59.08
2018-02-21T05:39:13.295Z,47.67
2018-02-21T05:41:40.846Z,44.28
2018-02-21T05:44:09.116Z,45.33
2018-02-21T05:46:37.383Z,49.03
2018-02-21T05:49:05.636Z,46.10
2018-02-21T05:51:33.136Z,44.83
2018-02-21T05:54:01.379Z,46.30
2018-02-21T05:56:28.862Z,38.55
2018-02-21T05:58:57.133Z,44.95
2018-02-21T06:01:25.380Z,38.88
2018-02-21T06:03:52.968Z,45.53
2018-02-21T06:06:21.209Z,42.22
2018-02-21T06:08:48.812Z,38.25
2018-02-21T06:11:17.080Z,49.28
2018-02-21T06:13:45.390Z,41.30
2018-02-21T06:16:12.868Z,45.88
2018-02-21T06:18:40.351Z,41.42
2018-02-21T06:21:07.830Z,42.83
2018-02-21T06:23:36.090Z,45.00
2018-02-21T06:26:03.639Z,46.25
2018-02-21T06:28:31.148Z,49.10
2018-02-21T06:30:58.635Z,53.03
2018-02-21T06:33:26.125Z,43.03
2018-02-21T06:35:54.386Z,49.25
2018-02-21T06:38:21.863Z,45.22
2018-02-21T06:40:50.117Z,41.25
2018-02-21T06:43:17.597Z,43.13
2018-02-21T06:45:45.852Z,55.08
2018-02-21T06:48:13.341Z,49.10
2018-02-21T06:50:41.588Z,47.55
2018-02-21T06:53:09.160Z,42.83
2018-02-21T06:55:37.420Z,44.65
2018-02-21T06:58:04.904Z,42.17
2018-02-21T07:00:33.157Z,49.65
2018-02-21T07:03:00.640Z,46.70
2018-02-21T07:05:28.891Z,49.05
2018-02-21T07:07:57.136Z,48.42
2018-02-21T07:10:24.619Z,53.70
2018-02-21T07:12:52.112Z,44.95
2018-02-21T07:15:19.624Z,45.10
2018-02-21T07:17:47.082Z,47.22
2018-02-21T07:20:14.664Z,48.47
2018-02-21T07:22:42.244Z,49.13
2018-02-21T07:25:09.818Z,52.38
2018-02-21T07:27:37.322Z,51.47
2018-02-21T07:30:04.808Z,53.03
2018-02-21T07:32:33.071Z,43.70
2018-02-21T07:35:01.322Z,46.33
2018-02-21T07:37:28.805Z,52.42
2018-02-21T07:39:57.056Z,46.13
2018-02-21T07:42:24.544Z,47.65
2018-02-21T07:44:52.786Z,52.17
2018-02-21T07:47:20.292Z,55.58
2018-02-21T07:49:47.834Z,54.17
2018-02-21T07:52:16.104Z,52.28
2018-02-21T07:54:44.364Z,57.40
2018-02-21T07:57:11.958Z,53.87
2018-02-21T07:59:39.437Z,49.67
2018-02-21T08:02:06.930Z,57.03
2018-02-21T08:04:34.431Z,44.55
2018-02-21T08:07:02.552Z,51.37
2018-02-21T08:09:30.141Z,52.42
2018-02-21T08:11:58.417Z,48.95
2018-02-21T08:14:26.708Z,45.60
2018-02-21T08:16:54.192Z,45.08
2018-02-21T08:19:21.682Z,49.05
2018-02-21T08:21:49.170Z,53.20
2018-02-21T08:24:17.673Z,46.10
2018-02-21T08:26:45.289Z,45.75
2018-02-21T08:29:12.979Z,46.10
2018-02-21T08:31:41.690Z,49.75
2018-02-21T08:34:09.226Z,47.17
2018-02-21T08:36:37.564Z,46.20
2018-02-21T08:39:05.032Z,57.60
2018-02-21T08:41:32.504Z,51.05
2018-02-21T08:44:00.760Z,46.85
2018-02-21T08:46:28.248Z,47.65
2018-02-21T08:48:56.495Z,47.15
2018-02-21T08:51:23.990Z,49.67
2018-02-21T08:53:51.464Z,40.28
2018-02-21T08:56:18.975Z,45.55
2018-02-21T08:58:47.284Z,40.10
2018-02-21T09:01:14.856Z,55.25
2018-02-21T09:03:42.337Z,46.72
2018-02-21T09:06:09.872Z,46.17
2018-02-21T09:08:37.349Z,46.20
2018-02-21T09:11:04.832Z,51.08
2018-02-21T09:13:33.072Z,45.08
2018-02-21T09:16:00.573Z,44.42
2018-02-21T09:18:28.832Z,43.70
2018-02-21T09:20:56.327Z,42.15
2018-02-21T09:23:23.804Z,43.63
2018-02-21T09:25:51.328Z,57.88
2018-02-21T09:28:19.579Z,41.22
2018-02-21T09:30:47.052Z,46.53
2018-02-21T09:33:14.540Z,46.83
2018-02-21T09:35:42.019Z,45.22
2018-02-21T09:38:09.573Z,45.33
2018-02-21T09:40:37.075Z,43.87
2018-02-21T09:43:04.564Z,49.78
2018-02-21T09:45:32.048Z,49.60
2018-02-21T09:47:59.528Z,50.08
2018-02-21T09:50:27.012Z,42.80
2018-02-21T09:52:54.572Z,43.50
2018-02-21T09:55:22.825Z,48.97
2018-02-21T09:57:50.303Z,46.75
2018-02-21T10:00:17.784Z,46.60
2018-02-21T10:02:45.308Z,45.45
2018-02-21T10:05:12.898Z,41.67
2018-02-21T10:07:40.380Z,36.80
2018-02-21T10:10:07.868Z,46.33
2018-02-21T10:12:35.357Z,41.55
2018-02-21T10:15:03.666Z,40.60
2018-02-21T10:17:31.945Z,39.95
2018-02-21T10:19:59.432Z,36.28
2018-02-21T10:22:26.918Z,38.92
2018-02-21T10:24:55.176Z,36.53
2018-02-21T10:27:22.651Z,32.08
2018-02-21T10:29:50.904Z,39.47
2018-02-21T10:32:18.381Z,38.28
2018-02-21T10:34:45.941Z,36.13
2018-02-21T10:37:13.655Z,32.13
2018-02-21T10:39:41.152Z,31.35
2018-02-21T10:42:08.631Z,29.08
2018-02-21T10:44:36.894Z,27.25
2018-02-21T10:47:04.376Z,31.90
2018-02-21T10:49:31.873Z,32.85
2018-02-21T10:51:59.406Z,28.08
2018-02-21T10:54:26.924Z,36.17
2018-02-21T10:56:55.179Z,28.05
2018-02-21T10:59:22.767Z,25.65
2018-02-21T11:01:51.028Z,25.00
2018-02-21T11:04:19.285Z,27.60
2018-02-21T11:06:46.883Z,32.33
2018-02-21T11:09:14.438Z,24.70
2018-02-21T11:11:42.703Z,30.70
2018-02-21T11:14:10.955Z,27.27
2018-02-21T11:16:38.450Z,20.33
2018-02-21T11:19:06.716Z,22.93
2018-02-21T11:21:35.031Z,21.40
2018-02-21T11:24:02.520Z,18.73
2018-02-21T11:26:30.112Z,23.15
2018-02-21T11:28:58.367Z,18.62
2018-02-21T11:31:25.945Z,24.75
2018-02-21T11:33:54.224Z,22.83
2018-02-21T11:36:22.495Z,20.10
2018-02-21T11:38:50.752Z,15.88
2018-02-21T11:41:18.348Z,19.17
2018-02-21T11:43:45.835Z,17.95
2018-02-21T11:46:13.320Z,17.55
2018-02-21T11:48:40.804Z,23.90
2018-02-21T11:51:09.063Z,27.75
2018-02-21T11:53:37.321Z,23.27
2018-02-21T11:56:04.805Z,20.12
2018-02-21T11:58:33.059Z,19.98
2018-02-21T12:01:00.544Z,22.33
2018-02-21T12:03:28.853Z,23.52
2018-02-21T12:05:56.371Z,24.60
2018-02-21T12:08:23.942Z,27.52
2018-02-21T12:10:52.229Z,20.08
2018-02-21T12:13:19.729Z,21.33
2018-02-21T12:15:47.292Z,24.60
2018-02-21T12:18:14.880Z,21.30
2018-02-21T12:20:43.161Z,18.90
2018-02-21T12:23:11.400Z,16.05
2018-02-21T12:25:38.896Z,17.50
2018-02-21T12:28:07.168Z,14.20
2018-02-21T12:30:34.661Z,14.75
2018-02-21T12:33:02.675Z,23.00
2018-02-21T12:35:30.161Z,24.08
2018-02-21T12:37:58.434Z,17.10
2018-02-21T12:40:32.477Z,19.62
2018-02-21T12:42:59.952Z,19.27
2018-02-21T12:45:27.458Z,20.52
2018-02-21T12:47:55.736Z,16.42
2018-02-21T12:50:23.985Z,17.98
2018-02-21T12:52:51.573Z,24.87
2018-02-21T12:55:19.829Z,18.85
2018-02-21T12:57:47.320Z,16.65
2018-02-21T13:00:14.832Z,16.50
2018-02-21T13:02:42.435Z,20.95
2018-02-21T13:05:09.975Z,19.25
2018-02-21T13:07:38.243Z,18.65
2018-02-21T13:10:05.814Z,18.30
2018-02-21T13:12:34.065Z,23.10
2018-02-21T13:15:01.637Z,17.98
2018-02-21T13:17:29.196Z,24.35
2018-02-21T13:19:56.680Z,17.55
2018-02-21T13:22:24.161Z,17.15
2018-02-21T13:24:51.638Z,20.75
2018-02-21T13:27:19.119Z,19.50
2018-02-21T13:29:46.791Z,18.60
2018-02-21T13:32:15.040Z,15.93
2018-02-21T13:34:42.519Z,15.95
2018-02-21T13:37:10.009Z,20.30
2018-02-21T13:39:37.537Z,17.23
2018-02-21T13:42:05.819Z,20.40
2018-02-21T13:44:33.296Z,14.38
2018-02-21T13:47:00.828Z,15.05
2018-02-21T13:49:29.105Z,13.05
2018-02-21T13:51:57.341Z,14.93
2018-02-21T13:54:24.829Z,13.62
2018-02-21T13:56:52.304Z,13.75
2018-02-21T13:59:20.560Z,11.90
2018-02-21T14:01:48.131Z,17.58
2018-02-21T14:04:16.385Z,15.23
2018-02-21T14:06:43.869Z,11.80
2018-02-21T14:09:12.127Z,14.02
2018-02-21T14:11:39.695Z,14.68
2018-02-21T14:14:07.964Z,11.65
2018-02-21T14:16:35.532Z,12.32
2018-02-21T14:19:03.812Z,15.95
2018-02-21T14:21:32.060Z,15.10
2018-02-21T14:23:59.724Z,14.02
2018-02-21T14:26:28.015Z,13.98
2018-02-21T14:28:56.277Z,15.60
2018-02-21T14:31:23.866Z,13.35
2018-02-21T14:33:52.140Z,14.40
2018-02-21T14:36:20.392Z,13.82
2018-02-21T14:38:48.632Z,11.07
2018-02-21T14:41:16.136Z,14.50
2018-02-21T14:43:44.385Z,15.57
2018-02-21T14:46:11.872Z,15.63
2018-02-21T14:48:39.344Z,15.95
2018-02-21T14:51:06.905Z,17.10
2018-02-21T14:53:34.387Z,18.27
2018-02-21T14:56:01.900Z,17.15
2018-02-21T14:58:29.380Z,23.42
2018-02-21T15:00:56.916Z,15.05
2018-02-21T15:03:25.176Z,17.05
2018-02-21T15:05:52.660Z,12.57
2018-02-21T15:08:20.919Z,13.35
2018-02-21T15:10:49.172Z,14.23
2018-02-21T15:13:16.648Z,11.57
2018-02-21T15:15:44.133Z,13.32
2018-02-21T15:18:11.627Z,19.15
2018-02-21T15:20:39.103Z,16.67
2018-02-21T15:23:06.688Z,13.45
2018-02-21T15:25:34.965Z,15.60
2018-02-21T15:28:03.274Z,12.82
2018-02-21T15:30:30.745Z,15.10
2018-02-21T15:32:58.223Z,21.90
2018-02-21T15:35:25.804Z,19.75
2018-02-21T15:37:53.285Z,21.27
2018-02-21T15:40:20.780Z,24.05
2018-02-21T15:42:48.321Z,23.10
2018-02-21T15:45:15.865Z,19.58
2018-02-21T15:47:43.308Z,16.55
2018-02-21T15:50:11.557Z,20.35
2018-02-21T15:52:39.132Z,19.17
2018-02-21T15:55:07.384Z,19.17
2018-02-21T15:57:34.867Z,19.85
2018-02-21T16:00:03.140Z,23.95
2018-02-21T16:02:31.388Z,18.27
2018-02-21T16:04:58.971Z,19.87
2018-02-21T16:07:28.117Z,13.50
2018-02-21T16:09:55.599Z,21.40
2018-02-21T16:12:23.088Z,21.75
2018-02-21T16:14:51.332Z,22.85
2018-02-21T16:17:18.813Z,21.00
2018-02-21T16:19:47.073Z,18.90
2018-02-21T16:22:14.580Z,18.37
2018-02-21T16:24:42.065Z,21.27
2018-02-21T16:27:09.608Z,22.95
2018-02-21T16:29:37.097Z,17.83
2018-02-21T16:32:04.578Z,18.77
2018-02-21T16:34:32.834Z,18.80
2018-02-21T16:37:00.330Z,20.00
2018-02-21T16:39:27.864Z,18.12
2018-02-21T16:41:56.129Z,17.30
2018-02-21T16:44:23.652Z,19.17
2018-02-21T16:46:51.138Z,23.58
2018-02-21T16:49:18.628Z,16.12
2018-02-21T16:51:46.879Z,15.60
2018-02-21T16:54:31.968Z,16.95
2018-02-21T16:57:00.220Z,15.13
2018-02-21T16:59:27.701Z,21.30
2018-02-21T17:01:59.948Z,17.30
2018-02-21T17:04:27.419Z,19.52
2018-02-21T17:06:56.022Z,15.13
2018-02-21T17:09:23.509Z,17.85
2018-02-21T17:11:50.987Z,17.17
2018-02-21T17:14:18.470Z,21.08
2018-02-21T17:16:45.948Z,16.58
2018-02-21T17:19:14.192Z,19.95
2018-02-21T17:21:41.768Z,17.27
2018-02-21T17:24:10.040Z,19.42
2018-02-21T17:26:38.315Z,20.67
2018-02-21T17:29:06.563Z,20.08
2018-02-21T17:31:34.061Z,18.05
2018-02-21T17:34:02.312Z,18.50
2018-02-21T17:36:29.783Z,22.60
2018-02-21T17:38:58.035Z,25.10
2018-02-21T17:41:31.183Z,21.08
2018-02-21T17:43:58.704Z,20.00
2018-02-21T17:46:26.956Z,18.98
2018-02-21T17:48:54.545Z,20.08
2018-02-21T17:51:22.025Z,18.50
2018-02-21T17:53:49.558Z,16.87
2018-02-21T17:56:17.812Z,24.55
2018-02-21T17:58:45.286Z,29.65
2018-02-21T18:01:13.536Z,23.73
2018-02-21T18:03:41.050Z,20.55
2018-02-21T18:06:08.579Z,18.50
2018-02-21T18:08:36.851Z,19.80
2018-02-21T18:11:04.408Z,23.60
2018-02-21T18:13:31.952Z,17.87
2018-02-21T18:15:59.555Z,28.17
2018-02-21T18:18:27.077Z,25.45
2018-02-21T18:20:55.372Z,27.05
2018-02-21T18:23:23.632Z,26.95
2018-02-21T18:25:51.126Z,43.25
2018-02-21T18:28:18.604Z,46.50
2018-02-21T18:30:46.093Z,26.90
2018-02-21T18:33:13.676Z,32.13
2018-02-21T18:35:41.991Z,39.22
2018-02-21T18:38:10.203Z,34.38
2018-02-21T18:40:37.729Z,34.08
2018-02-21T18:43:05.212Z,27.42
2018-02-21T18:45:32.795Z,19.73
2018-02-21T18:48:01.047Z,29.20
2018-02-21T18:50:28.528Z,23.02
2018-02-21T18:52:56.777Z,26.15
2018-02-21T18:55:24.255Z,32.65
2018-02-21T18:57:51.746Z,29.10
2018-02-21T19:00:19.271Z,26.73
2018-02-21T19:02:46.835Z,31.92
2018-02-21T19:05:15.088Z,22.42
2018-02-21T19:07:42.581Z,23.23
2018-02-21T19:10:10.836Z,29.00
2018-02-21T19:12:39.113Z,26.08
2018-02-21T19:15:07.492Z,21.15
2018-02-21T19:17:35.820Z,27.20
2018-02-21T19:20:04.156Z,27.65
2018-02-21T19:22:31.638Z,25.90
2018-02-21T19:24:59.128Z,26.12
2018-02-21T19:27:26.630Z,25.42
2018-02-21T19:29:54.910Z,25.55
2018-02-21T19:32:23.169Z,22.85
2018-02-21T19:34:51.431Z,25.92
2018-02-21T19:37:18.959Z,20.50
2018-02-21T19:39:46.476Z,28.60
2018-02-21T19:42:14.780Z,29.37
2018-02-21T19:44:42.269Z,27.42
2018-02-21T19:47:09.769Z,22.23
2018-02-21T19:49:37.268Z,24.55
2018-02-21T19:52:04.756Z,29.90
2018-02-21T19:54:32.332Z,21.75
2018-02-21T19:57:00.585Z,25.88
2018-02-21T19:59:28.072Z,22.15
2018-02-21T20:01:56.359Z,25.45
2018-02-21T20:04:23.877Z,26.15
2018-02-21T20:06:51.383Z,32.88
2018-02-21T20:09:18.885Z,33.20
2018-02-21T20:11:46.384Z,27.87
2018-02-21T20:14:13.888Z,30.02
2018-02-21T20:16:41.419Z,26.27
2018-02-21T20:19:08.865Z,33.25
2018-02-21T20:21:36.352Z,29.70
2018-02-21T20:24:03.843Z,26.85
2018-02-21T20:26:31.341Z,24.35
2018-02-21T20:28:58.945Z,24.52
2018-02-21T20:31:26.684Z,23.77
2018-02-21T20:33:54.173Z,19.85
2018-02-21T20:36:21.680Z,20.55
2018-02-21T20:38:49.203Z,17.45
2018-02-21T20:41:16.683Z,21.42
2018-02-21T20:43:44.327Z,21.92
2018-02-21T20:46:12.657Z,19.35
2018-02-21T20:48:40.139Z,16.02
2018-02-21T20:51:08.313Z,15.93
2018-02-21T20:53:35.788Z,19.60
2018-02-21T20:56:03.272Z,14.98
2018-02-21T20:58:30.975Z,16.20
2018-02-21T21:00:58.857Z,17.70
2018-02-21T21:03:26.436Z,16.33
2018-02-21T21:05:54.684Z,17.92
2018-02-21T21:08:22.164Z,15.27
2018-02-21T21:10:49.649Z,21.35
2018-02-21T21:13:17.148Z,20.55
2018-02-21T21:15:44.747Z,15.52
2018-02-21T21:18:12.996Z,19.98
2018-02-21T21:20:40.480Z,17.85
2018-02-21T21:23:08.796Z,15.93
2018-02-21T21:25:36.280Z,18.30
2018-02-21T21:28:03.786Z,15.82
2018-02-21T21:30:32.029Z,15.60
2018-02-21T21:32:59.729Z,12.90
2018-02-21T21:35:27.213Z,20.15
2018-02-21T21:37:54.718Z,18.15
2018-02-21T21:40:22.972Z,22.37
2018-02-21T21:42:50.551Z,16.98
2018-02-21T21:45:18.880Z,23.45
2018-02-21T21:47:47.084Z,15.88
2018-02-21T21:50:14.569Z,17.02
2018-02-21T21:52:42.812Z,19.73
2018-02-21T21:55:10.411Z,14.90
2018-02-21T21:57:38.651Z,19.42
2018-02-21T22:00:06.155Z,18.52
2018-02-21T22:02:33.652Z,17.48
2018-02-21T22:05:01.137Z,15.43
2018-02-21T22:07:28.623Z,20.25
2018-02-21T22:09:56.103Z,16.15
2018-02-21T22:12:23.596Z,18.05
2018-02-21T22:14:51.172Z,20.80
2018-02-21T22:17:19.428Z,16.40
2018-02-21T22:19:46.905Z,14.20
2018-02-21T22:22:15.159Z,16.62
2018-02-21T22:24:42.643Z,23.17
2018-02-21T22:27:10.991Z,21.23
2018-02-21T22:29:38.496Z,23.23
2018-02-21T22:32:06.035Z,18.45
2018-02-21T22:34:34.276Z,19.37
2018-02-21T22:37:01.748Z,20.52
2018-02-21T22:39:30.008Z,22.92
2018-02-21T22:41:57.488Z,16.37
2018-02-21T22:44:25.056Z,21.92
2018-02-21T22:46:53.304Z,23.00
2018-02-21T22:49:20.820Z,21.75
2018-02-21T22:51:48.328Z,21.60
2018-02-21T22:54:15.805Z,22.87
2018-02-21T22:56:44.080Z,19.50
2018-02-21T22:59:12.356Z,23.05
2018-02-21T23:01:40.593Z,18.10
2018-02-21T23:04:08.187Z,21.92
2018-02-21T23:06:36.449Z,19.60
2018-02-21T23:09:03.941Z,24.77
2018-02-21T23:11:31.455Z,22.62
2018-02-21T23:13:59.080Z,22.42
2018-02-21T23:16:26.568Z,18.55
2018-02-21T23:18:54.048Z,29.27
2018-02-21T23:21:21.532Z,26.20
2018-02-21T23:23:49.016Z,24.67
2018-02-21T23:26:16.533Z,19.70
2018-02-21T23:28:44.780Z,25.15
2018-02-21T23:31:12.269Z,25.30
2018-02-21T23:33:40.523Z,21.25
2018-02-21T23:36:08.100Z,28.85
2018-02-21T23:38:36.508Z,24.98
2018-02-21T23:41:03.988Z,18.27
2018-02-21T23:43:31.466Z,21.58
2018-02-21T23:45:58.949Z,21.10
2018-02-21T23:48:27.207Z,26.98
2018-02-21T23:50:54.718Z,24.65
2018-02-21T23:53:22.210Z,20.12
2018-02-21T23:55:49.736Z,26.98
2018-02-21T23:58:17.255Z,25.50
